Time;durP1;ratioP1;P1;durP2;ratioP2;P2;SDS_P1;SDS_P2;PMS_P1;PMS_P2;Temp;Humidity;BMP_temperature;BMP_pressure;BME280_temperature;BME280_humidity;BME280_pressure;Samples;Min_cycle;Max_cycle;Signal;HPM_P1;HPM_P2
2023/07/11 00:01:20;;;;;;;5.30;2.60;;;;;;;;;;108050;273;42940;-40
2023/07/11 00:03:55;;;;;;;6.10;3.10;;;;;;;;;;108009;272;43237;-40
2023/07/11 00:06:30;;;;;;;5.30;2.80;;;;;;;;;;108025;273;38571;-40
2023/07/11 00:09:05;;;;;;;5.40;2.90;;;;;;;;;;107994;269;39767;-41
2023/07/11 00:11:39;;;;;;;7.10;2.90;;;;;;;;;;108041;269;42974;-39
2023/07/11 00:14:16;;;;;;;6.00;3.10;;;;;;;;;;108034;269;42209;-40
2023/07/11 00:16:55;;;;;;;5.60;3.00;;;;;;;;;;108020;276;38723;-43
2023/07/11 00:19:47;;;;;;;5.10;2.90;;;;;;;;;;108062;276;39392;-40
2023/07/11 00:22:29;;;;;;;6.60;3.10;;;;;;;;;;108062;269;42832;-38
2023/07/11 00:25:04;;;;;;;6.10;3.20;;;;;;;;;;107937;270;42287;-39
2023/07/11 00:27:38;;;;;;;6.80;3.40;;;;;;;;;;108022;269;38866;-40
2023/07/11 00:30:14;;;;;;;7.10;3.20;;;;;;;;;;108056;276;39702;-41
2023/07/11 00:32:49;;;;;;;6.40;3.00;;;;;;;;;;108077;276;42711;-41
2023/07/11 00:35:27;;;;;;;5.50;3.50;;;;;;;;;;107996;273;42140;-40
2023/07/11 00:38:04;;;;;;;6.40;3.50;;;;;;;;;;108041;269;38858;-41
2023/07/11 00:40:43;;;;;;;7.10;3.60;;;;;;;;;;108034;269;40013;-40
2023/07/11 00:43:20;;;;;;;6.60;3.90;;;;;;;;;;108028;273;42794;-41
2023/07/11 00:46:18;;;;;;;6.50;3.80;;;;;;;;;;107992;270;42510;-41
2023/07/11 00:48:54;;;;;;;7.10;3.90;;;;;;;;;;108089;269;38510;-40
2023/07/11 00:51:33;;;;;;;7.90;4.20;;;;;;;;;;108085;276;39641;-40
2023/07/11 00:54:12;;;;;;;7.80;4.30;;;;;;;;;;108022;273;42814;-39
2023/07/11 00:56:49;;;;;;;9.10;5.20;;;;;;;;;;107942;269;47700;-40
2023/07/11 00:59:26;;;;;;;8.90;5.10;;;;;;;;;;108053;269;39861;-39
2023/07/11 01:02:07;;;;;;;8.30;5.00;;;;;;;;;;108041;276;39455;-40
2023/07/11 01:04:42;;;;;;;7.80;4.80;;;;;;;;;;108029;273;44064;-40
2023/07/11 01:07:19;;;;;;;7.80;4.60;;;;;;;;;;108026;269;48634;-40
2023/07/11 01:09:55;;;;;;;8.40;4.70;;;;;;;;;;108041;276;38835;-40
2023/07/11 01:12:32;;;;;;;8.40;5.00;;;;;;;;;;108045;276;39741;-40
2023/07/11 01:15:09;;;;;;;8.40;4.90;;;;;;;;;;108026;273;42582;-40
2023/07/11 01:17:42;;;;;;;9.40;5.50;;;;;;;;;;108078;276;43492;-40
2023/07/11 01:20:18;;;;;;;8.50;5.40;;;;;;;;;;108062;273;38759;-40
2023/07/11 01:22:52;;;;;;;8.20;4.80;;;;;;;;;;108040;276;40810;-40
2023/07/11 01:25:30;;;;;;;9.20;5.20;;;;;;;;;;108023;269;42908;-41
2023/07/11 01:28:07;;;;;;;8.10;5.20;;;;;;;;;;108039;269;42202;-39
2023/07/11 01:30:44;;;;;;;8.60;5.20;;;;;;;;;;108075;273;38914;-40
2023/07/11 01:33:24;;;;;;;9.00;5.10;;;;;;;;;;107947;276;175420;-39
2023/07/11 01:35:59;;;;;;;8.30;4.90;;;;;;;;;;107978;269;42915;-40
2023/07/11 01:38:35;;;;;;;7.20;4.40;;;;;;;;;;108071;272;42247;-39
2023/07/11 01:41:09;;;;;;;8.10;4.70;;;;;;;;;;108041;269;39887;-40
2023/07/11 01:43:43;;;;;;;7.50;4.40;;;;;;;;;;108076;272;40964;-40
2023/07/11 01:46:18;;;;;;;7.00;4.30;;;;;;;;;;108038;269;42947;-40
2023/07/11 01:48:51;;;;;;;6.80;4.00;;;;;;;;;;107955;276;175391;-39
2023/07/11 01:51:24;;;;;;;6.50;3.80;;;;;;;;;;108101;269;38787;-40
2023/07/11 01:54:00;;;;;;;6.00;3.60;;;;;;;;;;108091;273;39676;-40
2023/07/11 01:56:35;;;;;;;6.70;3.60;;;;;;;;;;108048;276;42835;-40
2023/07/11 01:59:08;;;;;;;5.90;3.40;;;;;;;;;;108021;273;41867;-39
2023/07/11 02:01:41;;;;;;;5.50;3.20;;;;;;;;;;108104;269;39895;-39
2023/07/11 02:04:21;;;;;;;6.00;3.40;;;;;;;;;;107997;276;175396;-41
2023/07/11 02:06:55;;;;;;;5.90;3.50;;;;;;;;;;108032;276;42986;-41
2023/07/11 02:09:30;;;;;;;6.00;3.30;;;;;;;;;;108082;276;42238;-40
2023/07/11 02:12:06;;;;;;;6.00;3.20;;;;;;;;;;108102;276;38892;-40
2023/07/11 02:14:40;;;;;;;5.00;3.00;;;;;;;;;;108143;276;40732;-39
2023/07/11 02:17:16;;;;;;;6.10;3.10;;;;;;;;;;108072;276;42825;-40
2023/07/11 02:19:50;;;;;;;5.50;2.70;;;;;;;;;;108112;276;42298;-39
2023/07/11 02:22:25;;;;;;;5.50;3.00;;;;;;;;;;108097;273;38795;-41
2023/07/11 02:24:59;;;;;;;5.00;2.70;;;;;;;;;;108078;276;39760;-41
2023/07/11 02:27:32;;;;;;;5.50;2.80;;;;;;;;;;108053;273;44000;-40
2023/07/11 02:30:08;;;;;;;5.20;2.90;;;;;;;;;;108040;269;42881;-39
2023/07/11 02:32:42;;;;;;;5.30;2.60;;;;;;;;;;108082;276;38752;-41
2023/07/11 02:35:17;;;;;;;4.90;2.60;;;;;;;;;;108118;276;39646;-42
2023/07/11 02:37:50;;;;;;;4.30;2.60;;;;;;;;;;108067;276;42862;-42
2023/07/11 02:40:24;;;;;;;4.20;2.40;;;;;;;;;;108068;276;42244;-40
2023/07/11 02:42:57;;;;;;;5.00;2.70;;;;;;;;;;107960;273;175389;-42
2023/07/11 02:45:30;;;;;;;5.00;2.70;;;;;;;;;;108088;276;39701;-42
2023/07/11 02:48:05;;;;;;;4.30;2.30;;;;;;;;;;108070;276;42606;-39
2023/07/11 02:50:39;;;;;;;4.70;2.50;;;;;;;;;;108117;276;43355;-40
2023/07/11 02:53:15;;;;;;;4.40;2.40;;;;;;;;;;108100;276;38534;-40
2023/07/11 02:55:50;;;;;;;4.40;2.50;;;;;;;;;;108098;276;39838;-41
2023/07/11 02:58:24;;;;;;;4.30;2.20;;;;;;;;;;108043;276;42959;-40
2023/07/11 03:01:01;;;;;;;4.30;2.40;;;;;;;;;;108125;276;43243;-41
2023/07/11 03:03:35;;;;;;;4.90;2.40;;;;;;;;;;108084;276;38832;-39
2023/07/11 03:06:09;;;;;;;5.50;2.30;;;;;;;;;;108062;272;39694;-40
2023/07/11 03:08:42;;;;;;;4.70;2.40;;;;;;;;;;107921;276;175389;-44
2023/07/11 03:11:15;;;;;;;4.60;2.50;;;;;;;;;;108093;273;43419;-46
2023/07/11 03:13:49;;;;;;;5.10;2.50;;;;;;;;;;108086;273;38682;-40
2023/07/11 03:16:23;;;;;;;5.10;2.60;;;;;;;;;;108099;269;40964;-39
2023/07/11 03:18:56;;;;;;;4.30;2.50;;;;;;;;;;107633;269;529639;-39
2023/07/11 03:21:30;;;;;;;5.20;2.50;;;;;;;;;;108034;276;41968;-40
2023/07/11 03:24:04;;;;;;;5.00;2.70;;;;;;;;;;108094;276;39907;-40
2023/07/11 03:26:38;;;;;;;4.80;2.60;;;;;;;;;;108102;276;39603;-41
2023/07/11 03:29:13;;;;;;;4.90;2.70;;;;;;;;;;108039;276;42920;-39
2023/07/11 03:31:47;;;;;;;5.00;2.80;;;;;;;;;;108077;276;43270;-40
2023/07/11 03:34:20;;;;;;;4.20;2.50;;;;;;;;;;108111;269;39687;-39
2023/07/11 03:36:55;;;;;;;5.10;2.70;;;;;;;;;;108075;277;39725;-44
2023/07/11 03:39:30;;;;;;;4.70;2.70;;;;;;;;;;108043;276;44081;-39
2023/07/11 03:42:04;;;;;;;4.80;2.70;;;;;;;;;;108027;276;42063;-44
2023/07/11 03:44:38;;;;;;;4.80;2.80;;;;;;;;;;108122;269;39338;-41
2023/07/11 03:47:27;;;;;;;5.10;2.80;;;;;;;;;;108061;273;39691;-41
2023/07/11 03:50:01;;;;;;;4.80;2.80;;;;;;;;;;108074;273;43981;-41
2023/07/11 03:52:34;;;;;;;5.00;2.70;;;;;;;;;;108055;269;43266;-39
2023/07/11 03:55:11;;;;;;;4.50;2.70;;;;;;;;;;108148;273;40099;-48
2023/07/11 03:57:44;;;;;;;4.60;2.70;;;;;;;;;;108078;276;39613;-43
2023/07/11 04:00:19;;;;;;;5.20;2.80;;;;;;;;;;108049;276;42971;-40
2023/07/11 04:02:53;;;;;;;4.50;2.70;;;;;;;;;;108088;277;42191;-39
2023/07/11 04:05:26;;;;;;;4.80;2.90;;;;;;;;;;108069;269;38775;-40
2023/07/11 04:08:02;;;;;;;5.10;2.80;;;;;;;;;;107907;277;175399;-39
2023/07/11 04:10:36;;;;;;;5.90;3.00;;;;;;;;;;108020;269;42830;-40
2023/07/11 04:13:13;;;;;;;5.10;3.10;;;;;;;;;;108100;277;42243;-41
2023/07/11 04:15:50;;;;;;;5.00;3.10;;;;;;;;;;108079;277;38782;-45
2023/07/11 04:18:23;;;;;;;4.90;2.90;;;;;;;;;;108096;269;39584;-40
2023/07/11 04:20:56;;;;;;;4.90;3.00;;;;;;;;;;108025;276;49732;-39
2023/07/11 04:23:30;;;;;;;5.20;2.90;;;;;;;;;;108097;276;42281;-39
2023/07/11 04:26:03;;;;;;;5.40;3.20;;;;;;;;;;108107;276;38740;-43
2023/07/11 04:28:37;;;;;;;4.90;2.80;;;;;;;;;;108100;269;41023;-39
2023/07/11 04:31:10;;;;;;;4.70;2.90;;;;;;;;;;108052;276;49666;-40
2023/07/11 04:33:44;;;;;;;4.80;3.10;;;;;;;;;;108088;273;41864;-41
2023/07/11 04:36:18;;;;;;;4.80;3.00;;;;;;;;;;108114;277;38871;-41
2023/07/11 04:38:52;;;;;;;4.90;2.50;;;;;;;;;;108081;277;39796;-39
2023/07/11 04:41:26;;;;;;;4.90;2.90;;;;;;;;;;108106;273;49723;-41
2023/07/11 04:44:00;;;;;;;5.10;2.90;;;;;;;;;;108094;276;42164;-42
2023/07/11 04:46:33;;;;;;;5.00;3.30;;;;;;;;;;108086;276;38503;-41
2023/07/11 04:49:06;;;;;;;6.10;3.10;;;;;;;;;;108111;276;40800;-41
2023/07/11 04:51:40;;;;;;;5.60;3.70;;;;;;;;;;108024;276;50657;-43
2023/07/11 04:54:13;;;;;;;5.10;3.50;;;;;;;;;;108068;269;42124;-40
2023/07/11 04:56:51;;;;;;;6.00;3.80;;;;;;;;;;108097;276;38754;-39
2023/07/11 04:59:24;;;;;;;5.80;3.40;;;;;;;;;;108113;273;39787;-41
2023/07/11 05:01:58;;;;;;;6.30;3.60;;;;;;;;;;108061;276;48558;-47
2023/07/11 05:04:32;;;;;;;5.50;3.20;;;;;;;;;;108127;269;42154;-40
2023/07/11 05:07:07;;;;;;;4.70;3.00;;;;;;;;;;108095;273;38830;-42
2023/07/11 05:09:41;;;;;;;4.90;3.00;;;;;;;;;;108060;276;39441;-44
2023/07/11 05:12:32;;;;;;;5.50;3.00;;;;;;;;;;108181;276;47609;-41
2023/07/11 05:15:09;;;;;;;5.40;3.00;;;;;;;;;;108068;273;42210;-45
2023/07/11 05:17:42;;;;;;;4.50;2.90;;;;;;;;;;108051;269;38874;-42
2023/07/11 05:20:19;;;;;;;5.70;2.90;;;;;;;;;;108003;273;40980;-42
2023/07/11 05:22:54;;;;;;;5.20;2.60;;;;;;;;;;107886;276;174879;-40
2023/07/11 05:25:28;;;;;;;5.30;2.60;;;;;;;;;;108087;273;42096;-41
2023/07/11 05:28:02;;;;;;;5.70;2.80;;;;;;;;;;108052;276;39937;-42
2023/07/11 05:30:40;;;;;;;4.70;2.50;;;;;;;;;;108081;276;39714;-41
2023/07/11 05:33:16;;;;;;;5.40;2.60;;;;;;;;;;108011;276;49396;-42
2023/07/11 05:36:32;;;;;;;5.90;2.60;;;;;;;;;;108109;277;42132;-43
2023/07/11 05:39:10;;;;;;;5.20;2.80;;;;;;;;;;108126;276;38697;-40
2023/07/11 05:41:49;;;;;;;5.40;2.80;;;;;;;;;;108055;269;39673;-42
2023/07/11 05:44:23;;;;;;;5.50;2.70;;;;;;;;;;108098;273;44048;-40
2023/07/11 05:46:56;;;;;;;5.50;2.70;;;;;;;;;;108083;269;43957;-41
2023/07/11 05:49:29;;;;;;;5.10;2.80;;;;;;;;;;108104;273;38913;-40
2023/07/11 05:52:03;;;;;;;5.20;2.80;;;;;;;;;;108044;276;39679;-40
2023/07/11 05:54:36;;;;;;;5.90;2.60;;;;;;;;;;108108;276;43156;-44
2023/07/11 05:57:10;;;;;;;6.00;2.80;;;;;;;;;;108098;276;42362;-45
2023/07/11 05:59:43;;;;;;;5.70;3.30;;;;;;;;;;108107;276;39999;-40
2023/07/11 06:02:16;;;;;;;6.00;3.60;;;;;;;;;;108057;276;39859;-39
2023/07/11 06:04:50;;;;;;;8.80;4.00;;;;;;;;;;108080;273;42635;-41
2023/07/11 06:07:23;;;;;;;8.20;3.60;;;;;;;;;;108075;273;42220;-41
2023/07/11 06:09:57;;;;;;;6.30;3.90;;;;;;;;;;108072;276;38822;-40
2023/07/11 06:12:30;;;;;;;7.10;3.60;;;;;;;;;;108026;272;39784;-42
2023/07/11 06:15:04;;;;;;;8.10;3.70;;;;;;;;;;108121;276;42763;-40
2023/07/11 06:17:38;;;;;;;7.80;3.70;;;;;;;;;;108101;276;42079;-41
2023/07/11 06:20:13;;;;;;;7.00;3.30;;;;;;;;;;108096;269;38936;-44
2023/07/11 06:22:46;;;;;;;7.10;3.50;;;;;;;;;;108071;276;40904;-40
2023/07/11 06:25:19;;;;;;;6.00;3.40;;;;;;;;;;108092;276;42615;-41
2023/07/11 06:27:53;;;;;;;6.90;3.70;;;;;;;;;;108088;276;41923;-39
2023/07/11 06:30:26;;;;;;;7.40;3.40;;;;;;;;;;108113;276;38557;-40
2023/07/11 06:33:00;;;;;;;6.60;3.50;;;;;;;;;;108034;269;39572;-40
2023/07/11 06:35:34;;;;;;;7.00;3.10;;;;;;;;;;108062;276;43135;-39
2023/07/11 06:38:08;;;;;;;6.00;2.90;;;;;;;;;;108093;276;43336;-42
2023/07/11 06:40:41;;;;;;;5.60;2.90;;;;;;;;;;108127;276;38590;-40
2023/07/11 06:43:17;;;;;;;5.90;2.90;;;;;;;;;;108109;276;39720;-41
2023/07/11 06:45:53;;;;;;;5.50;2.70;;;;;;;;;;107997;269;175081;-41
2023/07/11 06:48:30;;;;;;;4.70;2.80;;;;;;;;;;108091;276;42328;-48
2023/07/11 06:51:05;;;;;;;5.40;2.90;;;;;;;;;;108097;276;38512;-39
2023/07/11 06:53:39;;;;;;;5.00;2.60;;;;;;;;;;108068;269;40805;-40
2023/07/11 06:56:12;;;;;;;4.80;2.70;;;;;;;;;;108062;276;44146;-39
2023/07/11 06:58:47;;;;;;;4.90;2.70;;;;;;;;;;108080;276;43352;-43
2023/07/11 07:01:22;;;;;;;6.20;2.80;;;;;;;;;;108101;276;38728;-40
2023/07/11 07:04:11;;;;;;;4.60;2.50;;;;;;;;;;108051;273;39734;-46
2023/07/11 07:06:45;;;;;;;5.40;2.60;;;;;;;;;;108021;276;42979;-43
2023/07/11 07:09:20;;;;;;;4.60;2.70;;;;;;;;;;108080;276;42310;-43
2023/07/11 07:11:53;;;;;;;4.50;2.80;;;;;;;;;;108106;278;38729;-41
2023/07/11 07:14:26;;;;;;;4.40;2.80;;;;;;;;;;108039;278;39717;-39
2023/07/11 07:17:00;;;;;;;4.50;2.60;;;;;;;;;;108042;276;43023;-41
2023/07/11 07:19:33;;;;;;;4.50;2.50;;;;;;;;;;108028;278;42251;-39
2023/07/11 07:22:07;;;;;;;4.60;2.80;;;;;;;;;;108089;278;40060;-44
2023/07/11 07:24:40;;;;;;;4.50;2.60;;;;;;;;;;108048;276;39819;-41
2023/07/11 07:27:14;;;;;;;5.10;2.70;;;;;;;;;;108094;276;42851;-37
2023/07/11 07:30:00;;;;;;;4.10;2.60;;;;;;;;;;108102;277;41867;-42
2023/07/11 07:32:35;;;;;;;4.90;2.60;;;;;;;;;;108087;277;38723;-44
2023/07/11 07:35:10;;;;;;;5.10;2.60;;;;;;;;;;108080;276;39709;-45
2023/07/11 07:37:43;;;;;;;5.20;2.60;;;;;;;;;;108098;269;43010;-43
2023/07/11 07:40:18;;;;;;;5.00;3.10;;;;;;;;;;108042;276;43268;-45
2023/07/11 07:42:51;;;;;;;4.80;2.60;;;;;;;;;;108066;277;39942;-46
2023/07/11 07:45:24;;;;;;;4.60;2.70;;;;;;;;;;108051;273;41896;-42
2023/07/11 07:47:58;;;;;;;4.80;2.90;;;;;;;;;;108063;277;43966;-42
2023/07/11 07:50:31;;;;;;;6.80;3.10;;;;;;;;;;108100;277;42115;-42
2023/07/11 07:53:04;;;;;;;6.00;3.10;;;;;;;;;;108095;277;38582;-45
2023/07/11 07:55:39;;;;;;;5.20;2.90;;;;;;;;;;108046;274;40114;-42
2023/07/11 07:58:14;;;;;;;5.50;3.00;;;;;;;;;;108068;277;42823;-41
2023/07/11 08:01:03;;;;;;;4.90;2.70;;;;;;;;;;108085;277;42561;-46
2023/07/11 08:03:38;;;;;;;5.00;2.70;;;;;;;;;;107447;277;894495;-42
2023/07/11 08:06:13;;;;;;;5.30;2.80;;;;;;;;;;108066;269;39977;-39
2023/07/11 08:08:50;;;;;;;4.50;2.60;;;;;;;;;;108120;269;43010;-40
2023/07/11 08:11:24;;;;;;;4.40;2.70;;;;;;;;;;108067;277;42176;-41
2023/07/11 08:13:57;;;;;;;5.10;2.50;;;;;;;;;;108084;277;39809;-39
2023/07/11 08:16:34;;;;;;;4.60;2.60;;;;;;;;;;107998;273;46447;-38
2023/07/11 08:19:09;;;;;;;6.00;3.00;;;;;;;;;;108084;273;44153;-39
2023/07/11 08:21:43;;;;;;;4.90;2.80;;;;;;;;;;108104;269;42195;-39
2023/07/11 08:24:16;;;;;;;5.00;2.60;;;;;;;;;;108104;277;38922;-38
2023/07/11 08:26:50;;;;;;;4.70;2.40;;;;;;;;;;108080;277;46445;-38
2023/07/11 08:29:24;;;;;;;4.50;2.50;;;;;;;;;;108074;276;43988;-40
2023/07/11 08:32:02;;;;;;;5.10;2.60;;;;;;;;;;108070;276;42119;-38
2023/07/11 08:34:37;;;;;;;4.80;2.50;;;;;;;;;;108116;273;38494;-42
2023/07/11 08:37:11;;;;;;;4.30;2.40;;;;;;;;;;107959;269;175554;-41
2023/07/11 08:39:44;;;;;;;4.10;2.30;;;;;;;;;;108083;276;43009;-38
2023/07/11 08:42:31;;;;;;;4.30;2.30;;;;;;;;;;108080;276;42210;-37
2023/07/11 08:45:14;;;;;;;4.60;2.40;;;;;;;;;;108107;276;38696;-36
2023/07/11 08:47:58;;;;;;;4.60;2.20;;;;;;;;;;108069;273;48247;-37
2023/07/11 08:50:37;;;;;;;4.90;2.30;;;;;;;;;;108122;269;42963;-38
2023/07/11 08:53:16;;;;;;;5.00;2.40;;;;;;;;;;108085;276;41880;-39
2023/07/11 08:55:55;;;;;;;4.60;2.50;;;;;;;;;;108042;276;38787;-38
2023/07/11 08:58:35;;;;;;;5.40;2.40;;;;;;;;;;108118;280;40734;-38
2023/07/11 09:01:36;;;;;;;5.60;2.40;;;;;;;;;;108046;276;42599;-41
2023/07/11 09:04:15;;;;;;;5.90;2.30;;;;;;;;;;108086;276;42322;-41
2023/07/11 09:06:58;;;;;;;4.50;2.20;;;;;;;;;;107975;276;38901;-40
2023/07/11 09:09:32;;;;;;;4.70;2.10;;;;;;;;;;108073;276;40912;-38
2023/07/11 09:12:22;;;;;;;6.00;2.40;;;;;;;;;;108063;277;44004;-40
2023/07/11 09:15:05;;;;;;;5.10;2.20;;;;;;;;;;108078;273;42436;-36
2023/07/11 09:17:59;;;;;;;5.20;2.30;;;;;;;;;;108004;276;37934;-37
2023/07/11 09:20:44;;;;;;;5.30;2.20;;;;;;;;;;108068;276;39484;-37
2023/07/11 09:23:38;;;;;;;5.00;2.10;;;;;;;;;;108097;273;42630;-38
2023/07/11 09:26:22;;;;;;;4.40;2.20;;;;;;;;;;108057;276;43075;-42
2023/07/11 09:29:02;;;;;;;3.80;2.00;;;;;;;;;;108144;274;38570;-39
2023/07/11 09:31:43;;;;;;;4.20;1.80;;;;;;;;;;108106;278;40909;-38
2023/07/11 09:34:24;;;;;;;3.90;1.80;;;;;;;;;;108046;276;44029;-36
2023/07/11 09:36:59;;;;;;;3.80;1.90;;;;;;;;;;108037;278;42253;-39
2023/07/11 09:39:41;;;;;;;4.20;2.00;;;;;;;;;;108035;273;38747;-38
2023/07/11 09:42:37;;;;;;;3.50;1.90;;;;;;;;;;108048;270;39859;-40
2023/07/11 09:45:15;;;;;;;4.20;2.10;;;;;;;;;;108017;270;42790;-38
2023/07/11 09:47:56;;;;;;;4.10;1.90;;;;;;;;;;108053;276;42121;-40
2023/07/11 09:50:55;;;;;;;3.40;2.00;;;;;;;;;;108034;276;38856;-42
2023/07/11 09:53:35;;;;;;;3.60;1.80;;;;;;;;;;108027;276;39685;-39
2023/07/11 09:56:15;;;;;;;3.80;1.70;;;;;;;;;;108037;269;44049;-41
2023/07/11 09:58:53;;;;;;;3.90;1.90;;;;;;;;;;107986;278;42177;-39
2023/07/11 10:01:33;;;;;;;4.20;1.90;;;;;;;;;;108103;276;38824;-37
2023/07/11 10:04:14;;;;;;;3.60;1.80;;;;;;;;;;108049;276;39685;-36
2023/07/11 10:06:58;;;;;;;3.70;1.80;;;;;;;;;;108035;278;44095;-38
2023/07/11 10:09:36;;;;;;;4.70;1.80;;;;;;;;;;108092;269;49422;-39
2023/07/11 10:12:21;;;;;;;3.30;1.70;;;;;;;;;;108094;276;39928;-39
2023/07/11 10:15:01;;;;;;;3.80;1.80;;;;;;;;;;108042;274;39449;-40
2023/07/11 10:17:37;;;;;;;3.90;1.80;;;;;;;;;;108021;274;44056;-37
2023/07/11 10:20:20;;;;;;;3.60;1.90;;;;;;;;;;108124;276;42104;-40
2023/07/11 10:23:01;;;;;;;3.40;1.60;;;;;;;;;;108133;276;40030;-41
2023/07/11 10:25:35;;;;;;;4.10;1.90;;;;;;;;;;108081;269;39511;-39
2023/07/11 10:28:20;;;;;;;3.60;1.70;;;;;;;;;;107956;276;42866;-38
2023/07/11 10:30:53;;;;;;;3.50;1.60;;;;;;;;;;108063;272;42207;-39
2023/07/11 10:33:33;;;;;;;4.20;1.90;;;;;;;;;;108111;276;38848;-41
2023/07/11 10:36:31;;;;;;;4.50;1.70;;;;;;;;;;108034;277;39656;-39
2023/07/11 10:39:10;;;;;;;3.60;1.70;;;;;;;;;;108039;277;43028;-39
2023/07/11 10:41:51;;;;;;;4.00;1.60;;;;;;;;;;108013;274;43151;-40
2023/07/11 10:44:31;;;;;;;3.90;1.80;;;;;;;;;;108038;272;38712;-41
2023/07/11 10:47:08;;;;;;;4.00;1.80;;;;;;;;;;108009;277;40841;-41
2023/07/11 10:49:46;;;;;;;3.40;1.80;;;;;;;;;;107976;274;42944;-40
2023/07/11 10:52:30;;;;;;;3.80;1.80;;;;;;;;;;108073;269;42104;-40
2023/07/11 10:55:13;;;;;;;3.40;1.70;;;;;;;;;;108037;277;38743;-42
2023/07/11 10:57:51;;;;;;;3.00;1.60;;;;;;;;;;108058;276;40020;-42
2023/07/11 11:00:42;;;;;;;3.90;1.90;;;;;;;;;;108135;274;49452;-42
2023/07/11 11:03:26;;;;;;;3.80;1.70;;;;;;;;;;108035;276;42523;-46
2023/07/11 11:06:05;;;;;;;3.60;1.60;;;;;;;;;;108054;276;38780;-42
2023/07/11 11:08:45;;;;;;;3.90;1.70;;;;;;;;;;108011;277;39702;-36
2023/07/11 11:11:34;;;;;;;3.50;1.80;;;;;;;;;;108000;269;42623;-37
2023/07/11 11:14:13;;;;;;;4.10;1.60;;;;;;;;;;108132;277;41944;-39
2023/07/11 11:17:16;;;;;;;4.90;2.10;;;;;;;;;;108100;273;38742;-40
2023/07/11 11:20:09;;;;;;;8.60;3.50;;;;;;;;;;107614;277;553986;-41
2023/07/11 11:22:57;;;;;;;8.80;3.00;;;;;;;;;;108018;276;44110;-45
2023/07/11 11:25:39;;;;;;;15.60;5.40;;;;;;;;;;108075;278;43292;-38
2023/07/11 11:28:25;;;;;;;21.00;7.00;;;;;;;;;;108027;278;39920;-40
2023/07/11 11:31:16;;;;;;;12.60;5.10;;;;;;;;;;108051;274;39811;-39
2023/07/11 11:34:07;;;;;;;15.10;4.80;;;;;;;;;;108107;276;43967;-40
2023/07/11 11:36:53;;;;;;;11.90;4.20;;;;;;;;;;108147;276;42152;-41
2023/07/11 11:39:42;;;;;;;10.30;4.00;;;;;;;;;;108134;276;39949;-45
2023/07/11 11:42:22;;;;;;;10.60;4.30;;;;;;;;;;107990;269;175413;-41
2023/07/11 11:45:00;;;;;;;9.60;3.30;;;;;;;;;;108064;276;42787;-42
2023/07/11 11:47:56;;;;;;;7.70;3.40;;;;;;;;;;108122;276;42154;-39
2023/07/11 11:50:36;;;;;;;7.80;3.30;;;;;;;;;;107784;261;122263;-39
2023/07/11 11:53:43;;;;;;;7.50;3.20;;;;;;;;;;107919;281;40058;-39
2023/07/11 11:56:20;;;;;;;5.80;2.80;;;;;;;;;;107901;282;42811;-40
2023/07/11 11:59:07;;;;;;;7.30;3.00;;;;;;;;;;107623;260;187026;-38
2023/07/11 12:01:57;;;;;;;6.40;2.60;;;;;;;;;;107668;274;175398;-37
2023/07/11 12:05:55;;;;;;;6.00;2.70;;;;;;;;;;105064;1295;560722;-43
2023/07/11 12:08:36;;;;;;;7.00;2.50;;;;;;;;;;107496;1276;41461;-41
2023/07/11 12:11:33;;;;;;;6.80;2.90;;;;;;;;;;107479;1271;40977;-37
2023/07/11 12:14:30;;;;;;;6.10;2.20;;;;;;;;;;107485;1286;40124;-41
2023/07/11 12:17:05;;;;;;;5.30;2.50;;;;;;;;;;107146;1285;128093;-37
2023/07/11 12:19:43;;;;;;;5.10;2.40;;;;;;;;;;107371;1276;110641;-39
2023/07/11 12:22:27;;;;;;;4.90;2.50;;;;;;;;;;107559;1283;39388;-39
2023/07/11 12:25:20;;;;;;;5.60;2.40;;;;;;;;;;107431;1276;38633;-42
2023/07/11 12:28:05;;;;;;;4.40;2.40;;;;;;;;;;107589;1282;45598;-41
2023/07/11 12:30:45;;;;;;;5.30;2.60;;;;;;;;;;107504;1282;40593;-43
2023/07/11 12:33:41;;;;;;;5.70;3.00;;;;;;;;;;107596;1267;39793;-42
2023/07/11 12:36:58;;;;;;;6.30;3.30;;;;;;;;;;107475;1269;38593;-43
2023/07/11 12:39:59;;;;;;;4.80;2.80;;;;;;;;;;107478;1283;40114;-41
2023/07/11 12:42:55;;;;;;;;;;;;;;;;;;107647;1266;40497;-42
2023/07/11 12:45:43;;;;;;;5.60;2.50;;;;;;;;;;107661;1280;40584;-42
2023/07/11 12:48:44;;;;;;;5.30;2.50;;;;;;;;;;107756;1267;45632;-41
2023/07/11 12:51:31;;;;;;;5.10;2.70;;;;;;;;;;107758;1280;40009;-42
2023/07/11 12:54:21;;;;;;;4.20;2.40;;;;;;;;;;107907;1270;41537;-41
2023/07/11 12:56:58;;;;;;;4.50;2.60;;;;;;;;;;107941;1263;39548;-44
2023/07/11 12:59:53;;;;;;;4.80;2.80;;;;;;;;;;107878;1276;38389;-42
2023/07/11 13:02:32;;;;;;;4.80;2.70;;;;;;;;;;107873;1273;39629;-42
2023/07/11 13:05:26;;;;;;;5.00;2.90;;;;;;;;;;107921;1273;40296;-42
2023/07/11 13:08:19;;;;;;;4.90;2.90;;;;;;;;;;107867;1263;39853;-41
2023/07/11 13:11:24;;;;;;;4.50;2.50;;;;;;;;;;107813;1275;38446;-47
2023/07/11 13:14:13;;;;;;;4.80;2.80;;;;;;;;;;107897;1276;39963;-43
2023/07/11 13:17:09;;;;;;;4.30;2.60;;;;;;;;;;107772;1263;40590;-41
2023/07/11 13:20:06;;;;;;;4.50;2.70;;;;;;;;;;107880;1271;39890;-42
2023/07/11 13:23:00;;;;;;;5.30;3.10;;;;;;;;;;107817;1275;38706;-40
2023/07/11 13:25:56;;;;;;;4.90;2.70;;;;;;;;;;107885;1273;41316;-41
2023/07/11 13:29:14;;;;;;;4.30;2.80;;;;;;;;;;107824;1266;40464;-42
2023/07/11 13:32:04;;;;;;;6.00;2.90;;;;;;;;;;107848;1264;39588;-41
2023/07/11 13:34:54;;;;;;;5.00;2.90;;;;;;;;;;107934;1264;38213;-43
2023/07/11 13:37:42;;;;;;;4.70;2.80;;;;;;;;;;107800;1261;40116;-44
2023/07/11 13:40:40;;;;;;;4.40;2.90;;;;;;;;;;107778;1264;40581;-43
2023/07/11 13:43:43;;;;;;;4.30;2.90;;;;;;;;;;107804;1267;40883;-42
2023/07/11 13:46:38;;;;;;;4.70;3.10;;;;;;;;;;107825;1266;38489;-41
2023/07/11 13:49:20;;;;;;;4.40;2.80;;;;;;;;;;107758;1267;40016;-41
2023/07/11 13:52:05;;;;;;;5.30;3.20;;;;;;;;;;107712;1273;175008;-41
2023/07/11 13:54:57;;;;;;;4.80;2.80;;;;;;;;;;107729;1278;39533;-44
2023/07/11 13:57:54;;;;;;;4.50;2.90;;;;;;;;;;107648;1263;174951;-42
2023/07/11 14:00:52;;;;;;;4.70;3.10;;;;;;;;;;107777;1275;40086;-42
2023/07/11 14:03:27;;;;;;;4.70;2.90;;;;;;;;;;107775;1270;41594;-42
2023/07/11 14:06:16;;;;;;;4.70;3.00;;;;;;;;;;107797;1273;39744;-41
2023/07/11 14:09:14;;;;;;;4.70;3.10;;;;;;;;;;107708;1267;38695;-44
2023/07/11 14:12:14;;;;;;;4.60;3.00;;;;;;;;;;107837;1276;39722;-44
2023/07/11 14:15:19;;;;;;;4.50;3.20;;;;;;;;;;107795;1276;40553;-41
2023/07/11 14:18:15;;;;;;;4.60;3.00;;;;;;;;;;107804;1263;39533;-42
2023/07/11 14:21:13;;;;;;;5.60;3.20;;;;;;;;;;107738;1278;39627;-41
2023/07/11 14:24:14;;;;;;;4.30;3.00;;;;;;;;;;107799;1274;40327;-41
2023/07/11 14:27:15;;;;;;;5.00;3.10;;;;;;;;;;107731;1269;40593;-42
2023/07/11 14:30:12;;;;;;;4.80;3.10;;;;;;;;;;107761;1266;39816;-42
2023/07/11 14:33:14;;;;;;;5.20;2.80;;;;;;;;;;107769;1260;38658;-40
2023/07/11 14:36:08;;;;;;;6.30;3.40;;;;;;;;;;107841;1277;40999;-41
2023/07/11 14:39:02;;;;;;;4.70;2.90;;;;;;;;;;107710;1263;41743;-42
2023/07/11 14:41:56;;;;;;;4.50;3.00;;;;;;;;;;107786;1264;39667;-43
2023/07/11 14:44:50;;;;;;;4.90;3.10;;;;;;;;;;107654;1279;38618;-48
2023/07/11 14:47:44;;;;;;;4.20;2.70;;;;;;;;;;107665;1276;174911;-42
2023/07/11 14:50:37;;;;;;;4.60;3.00;;;;;;;;;;107847;1266;41925;-42
2023/07/11 14:53:38;;;;;;;4.20;2.80;;;;;;;;;;107844;1273;39640;-43
2023/07/11 14:56:33;;;;;;;5.00;3.00;;;;;;;;;;107818;1266;38508;-43
2023/07/11 14:59:33;;;;;;;4.20;2.70;;;;;;;;;;107744;1263;39948;-42
2023/07/11 15:02:34;;;;;;;4.50;2.90;;;;;;;;;;107746;1278;40446;-42
2023/07/11 15:05:30;;;;;;;4.20;2.70;;;;;;;;;;107796;1267;39961;-41
2023/07/11 15:08:28;;;;;;;4.10;2.60;;;;;;;;;;107797;1266;38644;-41
2023/07/11 15:11:34;;;;;;;4.20;2.60;;;;;;;;;;107697;1261;39915;-43
2023/07/11 15:14:30;;;;;;;5.40;2.90;;;;;;;;;;107799;1276;40613;-42
2023/07/11 15:17:28;;;;;;;4.50;2.90;;;;;;;;;;107743;1276;39657;-42
2023/07/11 15:20:25;;;;;;;5.40;2.80;;;;;;;;;;107713;1267;38532;-43
2023/07/11 15:23:22;;;;;;;4.90;2.90;;;;;;;;;;107764;1279;39666;-41
2023/07/11 15:26:20;;;;;;;4.50;2.90;;;;;;;;;;107764;1279;40918;-41
2023/07/11 15:29:19;;;;;;;5.00;3.00;;;;;;;;;;107740;1276;39558;-44
2023/07/11 15:31:52;;;;;;;4.70;3.10;;;;;;;;;;107929;1265;46642;-46
2023/07/11 15:34:47;;;;;;;5.40;2.80;;;;;;;;;;107798;1264;40108;-44
2023/07/11 15:37:41;;;;;;;4.10;2.60;;;;;;;;;;107829;1276;40891;-43
2023/07/11 15:40:35;;;;;;;4.50;2.70;;;;;;;;;;107705;1263;39790;-41
2023/07/11 15:43:21;;;;;;;4.60;2.90;;;;;;;;;;107785;1278;38546;-43
2023/07/11 15:46:18;;;;;;;4.20;2.50;;;;;;;;;;107823;1275;41523;-41
2023/07/11 15:49:19;;;;;;;4.80;2.80;;;;;;;;;;107779;1275;40718;-41
2023/07/11 15:52:13;;;;;;;4.60;2.80;;;;;;;;;;107660;1273;175429;-43
2023/07/11 15:55:17;;;;;;;4.80;2.80;;;;;;;;;;107779;1276;38721;-42
2023/07/11 15:58:23;;;;;;;4.10;2.80;;;;;;;;;;107776;1278;40867;-41
2023/07/11 16:01:17;;;;;;;3.90;2.60;;;;;;;;;;107788;1262;41205;-42
2023/07/11 16:04:15;;;;;;;4.20;2.60;;;;;;;;;;107781;1270;39698;-41